Time;durP1;ratioP1;P1;durP2;ratioP2;P2;SDS_P1;SDS_P2;PMS_P1;PMS_P2;Temp;Humidity;BMP_temperature;BMP_pressure;BME280_temperature;BME280_humidity;BME280_pressure;Samples;Min_cycle;Max_cycle;Signal;HPM_P1;HPM_P2
2021/06/05 00:02:09;;;;;;;;;11.00;9.50;;;;;;;;3494744;40;113836;-69
2021/06/05 00:04:37;;;;;;;;;9.75;9.75;;;;;;;;3491880;40;113003;-68
2021/06/05 00:07:05;;;;;;;;;11.50;10.00;;;;;;;;3497390;40;111908;-69
2021/06/05 00:09:32;;;;;;;;;11.50;11.00;;;;;;;;3493659;40;112912;-69
2021/06/05 00:11:58;;;;;;;;;10.00;10.00;;;;;;;;3494685;40;112467;-69
2021/06/05 00:14:24;;;;;;;;;11.25;11.25;;;;;;;;3492775;40;113266;-67
2021/06/05 00:16:51;;;;;;;;;12.00;10.50;;;;;;;;3494160;40;113779;-68
2021/06/05 00:19:18;;;;;;;;;10.25;10.25;;;;;;;;3494134;40;112126;-68
2021/06/05 00:21:46;;;;;;;;;9.00;7.50;;;;;;;;3494720;40;113109;-69
2021/06/05 00:24:12;;;;;;;;;8.00;8.00;;;;;;;;3493985;40;113924;-68
2021/06/05 00:26:39;;;;;;;;;10.50;10.00;;;;;;;;3497081;40;111914;-68
2021/06/05 00:29:05;;;;;;;;;7.00;7.00;;;;;;;;3494320;40;113760;-69
2021/06/05 00:31:31;;;;;;;;;10.25;10.25;;;;;;;;3492211;40;113115;-68
2021/06/05 00:33:57;;;;;;;;;10.75;10.75;;;;;;;;3494147;40;113321;-67
2021/06/05 00:36:24;;;;;;;;;11.25;10.25;;;;;;;;3493640;40;113799;-68
2021/06/05 00:38:52;;;;;;;;;11.00;10.00;;;;;;;;3491350;40;111980;-68
2021/06/05 00:41:19;;;;;;;;;10.50;10.50;;;;;;;;3494651;40;113344;-68
2021/06/05 00:43:47;;;;;;;;;9.00;9.00;;;;;;;;3494273;40;114249;-69
2021/06/05 00:46:13;;;;;;;;;12.00;10.00;;;;;;;;3494530;40;112326;-69
2021/06/05 00:48:40;;;;;;;;;12.75;12.75;;;;;;;;3496662;40;113225;-69
2021/06/05 00:51:06;;;;;;;;;11.00;11.00;;;;;;;;3494519;40;112244;-69
2021/06/05 00:53:32;;;;;;;;;11.75;11.00;;;;;;;;3494378;40;113541;-69
2021/06/05 00:56:01;;;;;;;;;9.00;9.00;;;;;;;;3494049;40;113903;-69
2021/06/05 00:58:27;;;;;;;;;12.25;12.00;;;;;;;;3494537;40;111927;-69
2021/06/05 01:00:54;;;;;;;;;12.50;11.25;;;;;;;;3489149;40;112494;-69
2021/06/05 01:03:21;;;;;;;;;10.75;10.75;;;;;;;;3494033;40;113981;-69
2021/06/05 01:05:52;;;;;;;;;13.00;11.00;;;;;;;;3494279;40;111814;-68
2021/06/05 01:08:22;;;;;;;;;13.50;13.00;;;;;;;;3494558;40;113303;-69
2021/06/05 01:10:50;;;;;;;;;11.00;10.00;;;;;;;;3495181;40;113376;-70
2021/06/05 01:13:19;;;;;;;;;11.25;10.25;;;;;;;;3494433;40;113849;-69
2021/06/05 01:15:49;;;;;;;;;12.75;12.75;;;;;;;;3493751;40;114261;-68
2021/06/05 01:18:19;;;;;;;;;11.00;10.50;;;;;;;;3494429;40;111994;-69
2021/06/05 01:20:53;;;;;;;;;10.75;9.75;;;;;;;;3494039;40;113368;-69
2021/06/05 01:23:23;;;;;;;;;10.00;9.00;;;;;;;;3494020;40;113894;-68
2021/06/05 01:26:05;;;;;;;;;10.00;10.00;;;;;;;;3494210;40;112135;-69
2021/06/05 01:28:34;;;;;;;;;10.00;9.00;;;;;;;;3492837;40;113688;-69
2021/06/05 01:31:03;;;;;;;;;11.75;10.50;;;;;;;;3493816;40;113882;-69
2021/06/05 01:33:31;;;;;;;;;10.00;10.00;;;;;;;;3496805;40;111905;-69
2021/06/05 01:35:58;;;;;;;;;14.00;11.75;;;;;;;;3493948;40;113897;-69
2021/06/05 01:38:25;;;;;;;;;11.75;10.50;;;;;;;;3492374;40;112433;-68
2021/06/05 01:40:53;;;;;;;;;11.75;10.00;;;;;;;;3494130;40;113227;-68
2021/06/05 01:43:22;;;;;;;;;9.50;9.25;;;;;;;;3490439;40;113024;-68
2021/06/05 01:45:49;;;;;;;;;12.75;11.00;;;;;;;;3494260;40;112032;-68
2021/06/05 01:48:16;;;;;;;;;10.50;10.50;;;;;;;;3494167;40;113762;-69
2021/06/05 01:50:43;;;;;;;;;10.00;10.00;;;;;;;;3493610;40;113981;-69
2021/06/05 01:53:12;;;;;;;;;10.25;10.25;;;;;;;;3494204;40;112037;-68
2021/06/05 01:55:40;;;;;;;;;13.00;12.00;;;;;;;;3492775;40;112348;-68
2021/06/05 01:58:13;;;;;;;;;10.25;9.25;;;;;;;;3493981;40;112911;-68
2021/06/05 02:00:41;;;;;;;;;12.75;11.00;;;;;;;;3493919;40;113292;-68
2021/06/05 02:03:08;;;;;;;;;11.75;11.50;;;;;;;;3493544;40;114010;-68
2021/06/05 02:05:34;;;;;;;;;10.00;10.00;;;;;;;;3493991;40;111903;-69
2021/06/05 02:08:00;;;;;;;;;11.75;11.75;;;;;;;;3494144;40;114045;-69
2021/06/05 02:10:27;;;;;;;;;10.00;9.75;;;;;;;;3492041;40;113093;-69
2021/06/05 02:12:54;;;;;;;;;9.75;8.25;;;;;;;;3492100;40;111979;-68
2021/06/05 02:15:24;;;;;;;;;10.00;9.50;;;;;;;;3493828;40;113460;-69
2021/06/05 02:17:52;;;;;;;;;13.50;10.75;;;;;;;;3495344;40;111942;-70
2021/06/05 02:20:21;;;;;;;;;9.75;8.25;;;;;;;;3493855;40;113273;-69
2021/06/05 02:22:47;;;;;;;;;8.25;8.25;;;;;;;;3492080;40;113298;-69
2021/06/05 02:25:15;;;;;;;;;10.25;10.25;;;;;;;;3493794;40;111862;-69
2021/06/05 02:27:42;;;;;;;;;12.50;10.00;;;;;;;;3493647;40;113568;-68
2021/06/05 02:30:09;;;;;;;;;11.00;10.00;;;;;;;;3493153;40;114037;-68
2021/06/05 02:32:38;;;;;;;;;12.00;10.50;;;;;;;;3493519;40;114352;-69
2021/06/05 02:35:06;;;;;;;;;11.00;10.00;;;;;;;;3493723;40;113203;-69
2021/06/05 02:37:32;;;;;;;;;11.25;10.00;;;;;;;;3495678;40;113968;-69
2021/06/05 02:40:00;;;;;;;;;9.50;9.50;;;;;;;;3493497;40;114455;-69
2021/06/05 02:42:27;;;;;;;;;11.25;11.00;;;;;;;;3488872;40;113000;-69
2021/06/05 02:44:55;;;;;;;;;9.50;9.00;;;;;;;;3491134;40;111921;-69
2021/06/05 02:47:23;;;;;;;;;11.00;11.00;;;;;;;;3495157;40;113400;-69
2021/06/05 02:49:49;;;;;;;;;11.75;10.00;;;;;;;;3493207;40;113408;-68
2021/06/05 02:52:29;;;;;;;;;11.00;9.00;;;;;;;;3495081;40;112930;-69
2021/06/05 02:54:56;;;;;;;;;13.00;10.00;;;;;;;;3493297;40;113408;-69
2021/06/05 02:57:22;;;;;;;;;11.00;10.50;;;;;;;;3494542;40;113877;-68
2021/06/05 02:59:48;;;;;;;;;10.25;10.25;;;;;;;;3497563;40;113235;-68
2021/06/05 03:02:14;;;;;;;;;12.00;10.50;;;;;;;;3490833;40;113898;-68
2021/06/05 03:04:40;;;;;;;;;11.50;10.00;;;;;;;;3472779;40;112225;-69
2021/06/05 03:07:06;;;;;;;;;10.00;10.00;;;;;;;;3485187;40;113996;-68
2021/06/05 03:09:33;;;;;;;;;10.50;10.50;;;;;;;;3483071;40;113013;-68
2021/06/05 03:12:00;;;;;;;;;12.25;8.50;;;;;;;;3483621;40;112009;-69
2021/06/05 03:14:26;;;;;;;;;12.00;11.00;;;;;;;;3482772;40;112313;-68
2021/06/05 03:16:52;;;;;;;;;11.75;11.00;;;;;;;;3480295;40;112925;-69
2021/06/05 03:19:18;;;;;;;;;10.25;10.25;;;;;;;;3484051;40;112715;-68
2021/06/05 03:21:44;;;;;;;;;10.00;10.00;;;;;;;;3485528;40;113353;-67
2021/06/05 03:24:11;;;;;;;;;10.50;9.25;;;;;;;;3483718;40;112343;-67
2021/06/05 03:26:38;;;;;;;;;13.00;10.00;;;;;;;;3483694;40;113397;-68
2021/06/05 03:29:05;;;;;;;;;12.25;9.50;;;;;;;;3484037;40;114143;-68
2021/06/05 03:31:32;;;;;;;;;11.75;10.75;;;;;;;;3480981;40;112317;-68
2021/06/05 03:33:58;;;;;;;;;10.50;10.50;;;;;;;;3480855;40;113430;-67
2021/06/05 03:36:24;;;;;;;;;9.00;9.00;;;;;;;;3481310;40;113263;-67
2021/06/05 03:38:50;;;;;;;;;12.50;12.00;;;;;;;;3483927;40;112108;-67
2021/06/05 03:41:16;;;;;;;;;11.25;11.25;;;;;;;;3484169;40;112283;-68
2021/06/05 03:43:44;;;;;;;;;11.50;10.75;;;;;;;;3486193;40;113837;-68
2021/06/05 03:46:10;;;;;;;;;14.75;11.00;;;;;;;;3480724;40;112399;-68
2021/06/05 03:48:36;;;;;;;;;13.00;11.75;;;;;;;;3483707;40;113983;-69
2021/06/05 03:51:02;;;;;;;;;11.00;11.00;;;;;;;;3484629;40;112367;-68
2021/06/05 03:53:28;;;;;;;;;10.25;10.00;;;;;;;;3483008;40;112238;-68
2021/06/05 03:55:55;;;;;;;;;11.00;10.25;;;;;;;;3484392;40;113886;-68
2021/06/05 03:58:25;;;;;;;;;10.00;10.00;;;;;;;;3484693;40;112081;-68
2021/06/05 04:00:53;;;;;;;;;12.00;12.00;;;;;;;;3484824;40;113709;-68
2021/06/05 04:03:19;;;;;;;;;11.25;11.25;;;;;;;;3484222;40;113821;-68
2021/06/05 04:05:45;;;;;;;;;11.00;9.25;;;;;;;;3487427;40;112134;-68
2021/06/05 04:08:12;;;;;;;;;11.50;11.00;;;;;;;;3480945;40;113135;-68
2021/06/05 04:10:38;;;;;;;;;10.50;10.50;;;;;;;;3484458;40;112346;-68
2021/06/05 04:13:04;;;;;;;;;13.25;12.00;;;;;;;;3483332;40;112320;-68
2021/06/05 04:15:31;;;;;;;;;14.75;11.75;;;;;;;;3484106;40;113542;-68
2021/06/05 04:17:59;;;;;;;;;10.50;10.00;;;;;;;;3484636;40;111824;-68
2021/06/05 04:20:27;;;;;;;;;14.00;12.50;;;;;;;;3484659;40;113317;-68
2021/06/05 04:22:53;;;;;;;;;10.00;10.00;;;;;;;;3480207;40;112968;-69
2021/06/05 04:25:20;;;;;;;;;11.00;11.00;;;;;;;;3487729;40;111929;-70
2021/06/05 04:27:46;;;;;;;;;13.25;11.00;;;;;;;;3482484;40;113000;-69
2021/06/05 04:30:13;;;;;;;;;10.00;10.00;;;;;;;;3484945;40;111907;-70
2021/06/05 04:32:39;;;;;;;;;11.00;10.00;;;;;;;;3484908;40;113226;-70
2021/06/05 04:35:06;;;;;;;;;11.00;11.00;;;;;;;;3484471;40;113804;-69
2021/06/05 04:37:33;;;;;;;;;11.75;10.75;;;;;;;;3484705;40;112288;-70
2021/06/05 04:40:00;;;;;;;;;19.25;16.00;;;;;;;;3484797;40;113612;-70
2021/06/05 04:42:26;;;;;;;;;12.00;11.50;;;;;;;;3484311;40;113008;-70
2021/06/05 04:44:52;;;;;;;;;13.00;13.00;;;;;;;;3479217;40;111967;-70
2021/06/05 04:47:18;;;;;;;;;12.00;10.50;;;;;;;;3482778;40;113456;-69
2021/06/05 04:49:45;;;;;;;;;12.50;11.75;;;;;;;;3481849;40;112230;-69
2021/06/05 04:52:11;;;;;;;;;12.25;11.25;;;;;;;;3480847;40;113457;-69
2021/06/05 04:54:38;;;;;;;;;10.75;10.75;;;;;;;;3482189;40;113909;-69
2021/06/05 04:57:05;;;;;;;;;10.00;10.00;;;;;;;;3481183;40;112835;-69
2021/06/05 04:59:31;;;;;;;;;15.50;12.50;;;;;;;;3482644;40;113788;-69
2021/06/05 05:01:57;;;;;;;;;12.00;12.00;;;;;;;;3484664;40;113851;-69
2021/06/05 05:04:23;;;;;;;;;10.75;10.75;;;;;;;;3482737;40;111844;-70
2021/06/05 05:06:49;;;;;;;;;14.00;12.50;;;;;;;;3481475;40;112323;-69
2021/06/05 05:09:18;;;;;;;;;12.50;11.50;;;;;;;;3485420;40;112892;-69
2021/06/05 05:11:46;;;;;;;;;12.50;11.75;;;;;;;;3482651;40;113134;-68
2021/06/05 05:14:12;;;;;;;;;11.25;11.25;;;;;;;;3484232;40;114491;-68
2021/06/05 05:16:39;;;;;;;;;16.25;12.25;;;;;;;;3480625;40;111934;-69
2021/06/05 05:19:05;;;;;;;;;12.25;10.00;;;;;;;;3479280;40;111984;-69
2021/06/05 05:21:31;;;;;;;;;9.00;8.75;;;;;;;;3481974;40;112939;-69
2021/06/05 05:23:58;;;;;;;;;11.25;11.25;;;;;;;;3482952;40;111787;-69
2021/06/05 05:26:25;;;;;;;;;11.25;9.75;;;;;;;;3482681;40;113304;-69
2021/06/05 05:28:54;;;;;;;;;9.00;9.00;;;;;;;;3484303;40;113871;-68
2021/06/05 05:31:21;;;;;;;;;10.75;8.25;;;;;;;;3483818;40;112044;-69
2021/06/05 05:33:47;;;;;;;;;13.50;11.00;;;;;;;;3484035;40;114227;-69
2021/06/05 05:36:16;;;;;;;;;15.75;13.25;;;;;;;;3481494;40;111835;-69
2021/06/05 05:38:42;;;;;;;;;12.00;9.00;;;;;;;;3480304;40;113813;-69
2021/06/05 05:41:10;;;;;;;;;10.00;9.50;;;;;;;;3484080;40;114162;-69
2021/06/05 05:43:36;;;;;;;;;12.25;12.25;;;;;;;;3482433;40;111913;-69
2021/06/05 05:46:04;;;;;;;;;12.00;11.00;;;;;;;;3482330;40;113842;-69
2021/06/05 05:48:30;;;;;;;;;11.75;11.50;;;;;;;;3479859;40;113892;-69
2021/06/05 05:50:57;;;;;;;;;11.00;10.00;;;;;;;;3482518;40;111936;-68
2021/06/05 05:53:23;;;;;;;;;13.75;11.00;;;;;;;;3482839;40;112573;-68
2021/06/05 05:55:49;;;;;;;;;14.75;11.00;;;;;;;;3483850;40;111956;-68
2021/06/05 05:58:16;;;;;;;;;12.50;12.25;;;;;;;;3482735;40;113390;-68
2021/06/05 06:00:43;;;;;;;;;15.00;13.50;;;;;;;;3479920;40;112869;-68
2021/06/05 06:03:11;;;;;;;;;12.50;11.50;;;;;;;;3483479;40;111818;-68
2021/06/05 06:05:37;;;;;;;;;11.00;11.00;;;;;;;;3483585;40;113012;-69
2021/06/05 06:08:04;;;;;;;;;11.00;11.00;;;;;;;;3483006;40;113847;-68
2021/06/05 06:10:30;;;;;;;;;12.75;11.25;;;;;;;;3483529;40;112305;-68
2021/06/05 06:12:56;;;;;;;;;13.00;11.25;;;;;;;;3484178;40;113303;-67
2021/06/05 06:15:24;;;;;;;;;14.25;14.00;;;;;;;;3483986;40;113841;-67
2021/06/05 06:17:50;;;;;;;;;14.00;12.75;;;;;;;;3483189;40;113279;-67
2021/06/05 06:20:20;;;;;;;;;12.75;10.75;;;;;;;;3482049;40;113845;-68
2021/06/05 06:22:46;;;;;;;;;14.50;12.00;;;;;;;;3482444;40;112213;-69
2021/06/05 06:25:15;;;;;;;;;14.00;13.00;;;;;;;;3484180;40;113281;-69
2021/06/05 06:27:41;;;;;;;;;17.50;12.25;;;;;;;;3483443;40;114289;-68
2021/06/05 06:30:08;;;;;;;;;13.25;11.25;;;;;;;;3484138;40;111963;-69
2021/06/05 06:32:34;;;;;;;;;14.00;13.25;;;;;;;;3485831;40;113297;-69
2021/06/05 06:35:00;;;;;;;;;13.00;13.00;;;;;;;;3486566;40;113823;-71
2021/06/05 06:37:28;;;;;;;;;15.75;13.00;;;;;;;;3485589;40;113682;-72
2021/06/05 06:39:54;;;;;;;;;14.25;13.25;;;;;;;;3483547;40;113707;-72
2021/06/05 06:42:20;;;;;;;;;12.25;12.25;;;;;;;;3482136;40;112246;-72
2021/06/05 06:44:46;;;;;;;;;16.75;14.00;;;;;;;;3485429;40;113452;-73
2021/06/05 06:47:12;;;;;;;;;12.00;12.00;;;;;;;;3485639;40;114181;-72
2021/06/05 06:49:38;;;;;;;;;11.50;11.50;;;;;;;;3485853;40;111841;-71
2021/06/05 06:52:05;;;;;;;;;12.50;12.50;;;;;;;;3485907;40;113301;-71
2021/06/05 06:54:32;;;;;;;;;13.00;13.00;;;;;;;;3485029;40;113733;-71
2021/06/05 06:56:58;;;;;;;;;13.50;12.50;;;;;;;;3488410;40;111840;-71
2021/06/05 06:59:24;;;;;;;;;14.00;13.25;;;;;;;;3484591;40;114227;-70
2021/06/05 07:01:50;;;;;;;;;15.00;14.50;;;;;;;;3484197;40;111993;-70
2021/06/05 07:04:16;;;;;;;;;14.00;11.25;;;;;;;;3485109;40;113441;-72
2021/06/05 07:06:42;;;;;;;;;12.25;12.00;;;;;;;;3484961;40;113847;-72
2021/06/05 07:09:11;;;;;;;;;13.75;11.50;;;;;;;;3485146;40;111856;-71
2021/06/05 07:11:38;;;;;;;;;11.75;11.25;;;;;;;;3485078;40;113066;-72
2021/06/05 07:14:06;;;;;;;;;15.00;13.00;;;;;;;;3484718;40;113906;-71
2021/06/05 07:16:32;;;;;;;;;15.75;13.75;;;;;;;;3485005;40;111806;-69
2021/06/05 07:18:59;;;;;;;;;14.00;13.00;;;;;;;;3487362;40;113314;-70
2021/06/05 07:21:25;;;;;;;;;11.50;10.75;;;;;;;;3484664;40;113812;-69
2021/06/05 07:23:52;;;;;;;;;10.75;10.75;;;;;;;;3485010;40;114179;-68
2021/06/05 07:26:20;;;;;;;;;15.00;14.25;;;;;;;;3480617;40;112854;-68
2021/06/05 07:28:49;;;;;;;;;13.75;12.50;;;;;;;;3483938;40;113553;-69
2021/06/05 07:31:17;;;;;;;;;12.00;10.75;;;;;;;;3484197;40;113267;-69
2021/06/05 07:33:44;;;;;;;;;13.25;13.25;;;;;;;;3483850;40;116052;-68
2021/06/05 07:36:12;;;;;;;;;13.75;13.00;;;;;;;;3484414;40;112013;-68
2021/06/05 07:38:39;;;;;;;;;13.50;12.25;;;;;;;;3484432;40;113850;-68
2021/06/05 07:41:05;;;;;;;;;11.75;11.75;;;;;;;;3486638;40;113638;-68
2021/06/05 07:43:31;;;;;;;;;13.00;11.25;;;;;;;;3484827;40;113297;-68
2021/06/05 07:45:59;;;;;;;;;11.00;11.00;;;;;;;;3484245;40;113887;-68
2021/06/05 07:48:25;;;;;;;;;14.75;14.25;;;;;;;;3484160;40;111917;-69
2021/06/05 07:50:51;;;;;;;;;14.25;12.75;;;;;;;;3484804;40;113622;-71
2021/06/05 07:53:17;;;;;;;;;14.00;13.75;;;;;;;;3484547;40;113821;-71
2021/06/05 07:55:44;;;;;;;;;13.50;12.00;;;;;;;;3485052;40;111720;-67
2021/06/05 07:58:10;;;;;;;;;12.75;11.75;;;;;;;;3484813;40;113336;-69
2021/06/05 08:00:37;;;;;;;;;14.00;14.00;;;;;;;;3484161;40;113787;-68
2021/06/05 08:03:06;;;;;;;;;15.00;14.75;;;;;;;;3487519;40;112235;-69
2021/06/05 08:05:32;;;;;;;;;14.75;13.50;;;;;;;;3482808;40;113876;-69
2021/06/05 08:07:59;;;;;;;;;16.50;15.75;;;;;;;;3484943;40;111826;-70
2021/06/05 08:10:26;;;;;;;;;15.50;15.00;;;;;;;;3485750;40;113509;-69
2021/06/05 08:12:52;;;;;;;;;17.25;17.00;;;;;;;;3483510;40;113286;-68
2021/06/05 08:15:20;;;;;;;;;13.75;13.75;;;;;;;;3484731;40;113626;-70
2021/06/05 08:17:46;;;;;;;;;15.50;15.50;;;;;;;;3484719;40;113430;-70
2021/06/05 08:20:16;;;;;;;;;14.50;14.50;;;;;;;;3487404;40;113407;-69
2021/06/05 08:22:42;;;;;;;;;19.00;17.25;;;;;;;;3486224;40;112410;-69
2021/06/05 08:25:08;;;;;;;;;16.75;16.25;;;;;;;;3485604;40;113394;-71
2021/06/05 08:27:37;;;;;;;;;18.00;16.75;;;;;;;;3484307;40;112204;-70
2021/06/05 08:30:03;;;;;;;;;19.50;17.75;;;;;;;;3481729;40;112284;-71
2021/06/05 08:32:30;;;;;;;;;16.75;16.50;;;;;;;;3482737;40;112892;-71
2021/06/05 08:34:56;;;;;;;;;19.75;18.00;;;;;;;;3489680;40;112885;-70
2021/06/05 08:37:23;;;;;;;;;15.25;13.50;;;;;;;;3489086;40;113278;-71
2021/06/05 08:39:51;;;;;;;;;15.50;14.50;;;;;;;;3488704;40;113779;-71
2021/06/05 08:42:20;;;;;;;;;15.50;14.00;;;;;;;;3488689;40;112142;-68
2021/06/05 08:44:47;;;;;;;;;15.25;14.50;;;;;;;;3489556;40;113675;-68
2021/06/05 08:47:18;;;;;;;;;16.00;14.75;;;;;;;;3483408;40;112560;-68
2021/06/05 08:49:45;;;;;;;;;15.00;15.00;;;;;;;;3489528;40;113503;-67
2021/06/05 08:52:14;;;;;;;;;13.25;13.25;;;;;;;;3481331;40;112919;-67
2021/06/05 08:54:46;;;;;;;;;15.50;14.25;;;;;;;;3483197;40;112102;-67
2021/06/05 08:57:16;;;;;;;;;15.00;15.00;;;;;;;;3483424;40;113527;-67
2021/06/05 08:59:43;;;;;;;;;16.50;14.00;;;;;;;;3483990;40;113781;-68
2021/06/05 09:02:10;;;;;;;;;14.50;14.00;;;;;;;;3484740;40;112266;-70
2021/06/05 09:04:38;;;;;;;;;16.25;14.50;;;;;;;;3482472;40;112902;-69
2021/06/05 09:07:06;;;;;;;;;12.50;12.50;;;;;;;;3487029;40;113942;-75
2021/06/05 09:09:33;;;;;;;;;14.00;13.25;;;;;;;;3484492;40;113337;-68
2021/06/05 09:12:01;;;;;;;;;16.00;13.50;;;;;;;;3484304;40;113910;-69
2021/06/05 09:14:28;;;;;;;;;14.50;14.00;;;;;;;;3484524;40;111829;-68
2021/06/05 09:16:55;;;;;;;;;14.00;13.00;;;;;;;;3484748;40;113337;-68
2021/06/05 09:19:26;;;;;;;;;15.75;14.00;;;;;;;;3483308;40;114288;-67
2021/06/05 09:21:59;;;;;;;;;17.75;16.00;;;;;;;;3482839;40;112311;-68
2021/06/05 09:24:29;;;;;;;;;18.50;17.50;;;;;;;;3481107;40;113351;-68
2021/06/05 09:27:06;;;;;;;;;17.50;16.50;;;;;;;;3480813;40;113927;-69
2021/06/05 09:29:33;;;;;;;;;15.00;15.00;;;;;;;;3484656;40;113637;-69
2021/06/05 09:32:00;;;;;;;;;18.00;16.25;;;;;;;;3482545;40;113292;-68
2021/06/05 09:34:30;;;;;;;;;21.25;18.00;;;;;;;;3478523;40;112206;-68
2021/06/05 09:36:56;;;;;;;;;15.25;14.50;;;;;;;;3482324;40;113239;-68
2021/06/05 09:39:36;;;;;;;;;15.50;15.00;;;;;;;;3483877;40;114081;-69
2021/06/05 09:42:04;;;;;;;;;17.25;16.25;;;;;;;;3483007;40;112092;-68
2021/06/05 09:44:38;;;;;;;;;17.25;14.00;;;;;;;;3484513;40;113284;-68
2021/06/05 09:47:05;;;;;;;;;13.25;12.00;;;;;;;;3483774;40;113828;-68
2021/06/05 09:49:32;;;;;;;;;14.75;13.50;;;;;;;;3484184;40;111788;-68
2021/06/05 09:52:01;;;;;;;;;15.00;12.50;;;;;;;;3484882;40;112660;-68
2021/06/05 09:54:29;;;;;;;;;12.50;12.50;;;;;;;;3483937;40;111865;-69
2021/06/05 09:57:13;;;;;;;;;14.25;12.00;;;;;;;;3484024;40;113384;-69
2021/06/05 09:59:40;;;;;;;;;14.00;13.00;;;;;;;;3483913;40;114096;-70
2021/06/05 10:02:12;;;;;;;;;13.00;11.50;;;;;;;;3485854;40;112221;-69
2021/06/05 10:04:40;;;;;;;;;14.00;14.00;;;;;;;;3485740;40;113278;-71
2021/06/05 10:07:23;;;;;;;;;14.50;13.25;;;;;;;;3483215;40;112879;-69
2021/06/05 10:09:49;;;;;;;;;12.75;12.00;;;;;;;;3485445;40;112214;-67
2021/06/05 10:12:19;;;;;;;;;13.75;13.50;;;;;;;;3485363;40;113196;-70
2021/06/05 10:14:52;;;;;;;;;12.50;12.50;;;;;;;;3485293;40;113441;-69
2021/06/05 10:17:25;;;;;;;;;12.50;12.50;;;;;;;;3485498;40;113453;-69
2021/06/05 10:19:54;;;;;;;;;12.75;12.00;;;;;;;;3484719;40;113362;-68
2021/06/05 10:22:20;;;;;;;;;10.75;10.50;;;;;;;;3485375;40;112026;-69
2021/06/05 10:24:51;;;;;;;;;15.25;15.00;;;;;;;;3485186;40;113198;-69
2021/06/05 10:27:19;;;;;;;;;12.50;11.25;;;;;;;;3484872;40;113831;-69
2021/06/05 10:29:48;;;;;;;;;12.00;11.50;;;;;;;;3485141;40;111846;-69
2021/06/05 10:32:18;;;;;;;;;11.50;11.50;;;;;;;;3484419;40;112511;-69
2021/06/05 10:34:46;;;;;;;;;12.00;12.00;;;;;;;;3484679;40;113971;-69
2021/06/05 10:37:14;;;;;;;;;13.00;12.00;;;;;;;;3488020;40;111779;-69
2021/06/05 10:39:41;;;;;;;;;14.00;13.00;;;;;;;;3483061;40;112850;-69
2021/06/05 10:42:13;;;;;;;;;9.50;9.50;;;;;;;;3485095;40;112133;-69
2021/06/05 10:44:39;;;;;;;;;13.75;12.75;;;;;;;;3485094;40;113172;-69
2021/06/05 10:47:09;;;;;;;;;14.00;14.00;;;;;;;;3484845;40;114069;-68
2021/06/05 10:49:39;;;;;;;;;12.50;12.50;;;;;;;;3485038;40;111894;-68
2021/06/05 10:52:11;;;;;;;;;12.50;11.50;;;;;;;;3485315;40;113205;-68
2021/06/05 10:54:42;;;;;;;;;12.50;11.00;;;;;;;;3484653;40;113973;-68
2021/06/05 10:57:26;;;;;;;;;11.75;11.75;;;;;;;;3487857;40;112249;-68
2021/06/05 10:59:54;;;;;;;;;12.50;12.50;;;;;;;;3482720;40;112906;-68
2021/06/05 11:02:41;;;;;;;;;11.75;10.75;;;;;;;;3485017;40;112373;-69
2021/06/05 11:05:29;;;;;;;;;9.50;9.50;;;;;;;;3484156;40;113597;-68
2021/06/05 11:08:10;;;;;;;;;10.50;10.50;;;;;;;;3483022;40;113850;-69
2021/06/05 11:10:48;;;;;;;;;12.50;12.50;;;;;;;;3480142;40;112032;-68
2021/06/05 11:13:47;;;;;;;;;9.75;9.50;;;;;;;;3485221;40;113828;-69
2021/06/05 11:16:14;;;;;;;;;13.75;11.75;;;;;;;;3482192;40;113116;-68
2021/06/05 11:18:42;;;;;;;;;11.50;11.50;;;;;;;;3485044;40;111991;-68
2021/06/05 11:21:27;;;;;;;;;9.50;9.50;;;;;;;;3487551;40;113541;-69
2021/06/05 11:24:11;;;;;;;;;10.00;9.00;;;;;;;;3485332;40;112123;-68
2021/06/05 11:26:44;;;;;;;;;9.00;9.00;;;;;;;;3484171;40;113226;-70
2021/06/05 11:29:25;;;;;;;;;10.00;10.00;;;;;;;;3484730;40;114387;-70
2021/06/05 11:31:52;;;;;;;;;14.25;12.50;;;;;;;;3482919;40;111894;-70
2021/06/05 11:34:45;;;;;;;;;13.00;11.00;;;;;;;;3485268;40;114288;-69
2021/06/05 11:37:31;;;;;;;;;11.00;11.00;;;;;;;;3468767;40;113940;-71
2021/06/05 11:39:58;;;;;;;;;12.50;10.75;;;;;;;;3483423;40;112356;-69
2021/06/05 11:42:51;;;;;;;;;10.00;10.00;;;;;;;;3483297;40;113403;-69
2021/06/05 11:45:37;;;;;;;;;9.75;9.75;;;;;;;;3484182;40;112959;-70
2021/06/05 11:48:18;;;;;;;;;9.50;9.50;;;;;;;;3484023;40;113365;-69
2021/06/05 11:50:44;;;;;;;;;13.00;11.00;;;;;;;;3484249;40;114628;-70
2021/06/05 11:53:28;;;;;;;;;8.50;8.50;;;;;;;;3485278;40;111891;-69
2021/06/05 11:55:57;;;;;;;;;11.00;11.00;;;;;;;;3483070;40;113593;-68
2021/06/05 11:58:35;;;;;;;;;11.00;11.00;;;;;;;;3484424;40;115165;-67
2021/06/05 12:01:16;;;;;;;;;10.50;9.50;;;;;;;;3483411;40;112197;-67
2021/06/05 12:03:45;;;;;;;;;12.50;11.75;;;;;;;;3482355;40;113533;-67
2021/06/05 12:06:13;;;;;;;;;10.00;10.00;;;;;;;;3483820;40;114553;-68
2021/06/05 12:08:40;;;;;;;;;10.25;10.25;;;;;;;;3486150;40;112374;-67
2021/06/05 12:11:16;;;;;;;;;13.00;12.00;;;;;;;;3483844;40;113809;-69
2021/06/05 12:13:44;;;;;;;;;13.00;10.75;;;;;;;;3483628;40;112644;-70
2021/06/05 12:16:14;;;;;;;;;14.25;12.00;;;;;;;;3480385;40;112701;-68
2021/06/05 12:18:41;;;;;;;;;12.00;12.00;;;;;;;;3483280;40;113850;-69
2021/06/05 12:21:21;;;;;;;;;12.75;11.25;;;;;;;;3485085;40;111871;-69
2021/06/05 12:23:47;;;;;;;;;11.75;11.75;;;;;;;;3484747;40;113687;-69
2021/06/05 12:26:14;;;;;;;;;14.50;13.75;;;;;;;;3484470;40;114114;-68
2021/06/05 12:28:41;;;;;;;;;13.25;11.50;;;;;;;;3483194;40;111978;-67
2021/06/05 12:31:13;;;;;;;;;12.00;11.25;;;;;;;;3487053;40;113304;-67
2021/06/05 12:33:40;;;;;;;;;12.75;12.00;;;;;;;;3484487;40;111987;-69
2021/06/05 12:36:17;;;;;;;;;11.00;11.00;;;;;;;;3482917;40;112392;-69
2021/06/05 12:38:46;;;;;;;;;12.67;12.67;;;;;;;;3483943;40;114386;-69
2021/06/05 12:41:17;;;;;;;;;12.00;11.50;;;;;;;;3483083;40;111721;-68
2021/06/05 12:43:44;;;;;;;;;11.00;11.00;;;;;;;;3485028;40;113250;-69
2021/06/05 12:46:12;;;;;;;;;10.25;10.25;;;;;;;;3484187;40;114338;-68
2021/06/05 12:48:40;;;;;;;;;11.00;9.50;;;;;;;;3484485;40;111817;-69
2021/06/05 12:51:08;;;;;;;;;10.00;9.00;;;;;;;;3484817;40;113324;-68
2021/06/05 12:53:35;;;;;;;;;10.25;10.25;;;;;;;;3486342;40;112039;-68
2021/06/05 12:56:02;;;;;;;;;10.50;9.75;;;;;;;;3484592;40;113400;-69
2021/06/05 12:58:30;;;;;;;;;9.75;9.25;;;;;;;;3484037;40;113846;-70
2021/06/05 13:00:56;;;;;;;;;9.75;9.75;;;;;;;;3482452;40;112270;-69
2021/06/05 13:03:38;;;;;;;;;10.00;10.00;;;;;;;;3487590;40;113325;-68
2021/06/05 13:06:17;;;;;;;;;11.00;9.33;;;;;;;;3487480;40;114032;-69
2021/06/05 13:08:44;;;;;;;;;10.33;9.00;;;;;;;;3487520;40;112217;-69
2021/06/05 13:11:11;;;;;;;;;10.25;10.25;;;;;;;;3486748;40;113686;-69
2021/06/05 13:13:38;;;;;;;;;11.00;9.75;;;;;;;;3489601;40;114063;-69
2021/06/05 13:16:21;;;;;;;;;11.50;10.00;;;;;;;;3485899;40;112766;-68
2021/06/05 13:18:48;;;;;;;;;9.75;9.00;;;;;;;;3488090;40;114070;-68
2021/06/05 13:21:19;;;;;;;;;8.25;8.25;;;;;;;;3488506;40;112121;-69
2021/06/05 13:23:46;;;;;;;;;8.33;8.33;;;;;;;;3487888;40;113416;-69
2021/06/05 13:26:32;;;;;;;;;6.00;5.67;;;;;;;;3486999;40;113833;-69
2021/06/05 13:29:13;;;;;;;;;7.00;7.00;;;;;;;;3479498;40;112002;-69
2021/06/05 13:31:45;;;;;;;;;6.33;5.67;;;;;;;;3482866;40;113780;-69
2021/06/05 13:34:17;;;;;;;;;8.00;6.00;;;;;;;;3483915;40;112817;-69
2021/06/05 13:36:46;;;;;;;;;6.00;6.00;;;;;;;;3486623;40;112075;-68
2021/06/05 13:39:13;;;;;;;;;8.00;6.67;;;;;;;;3481755;40;112927;-68
2021/06/05 13:41:40;;;;;;;;;6.67;6.33;;;;;;;;3483984;40;112234;-69
2021/06/05 13:44:07;;;;;;;;;6.00;6.00;;;;;;;;3484390;40;113815;-69
2021/06/05 13:46:33;;;;;;;;;7.33;6.33;;;;;;;;3483797;40;113970;-68
2021/06/05 13:48:59;;;;;;;;;8.00;7.67;;;;;;;;3483875;40;112447;-70
2021/06/05 13:51:25;;;;;;;;;9.33;7.00;;;;;;;;3483447;40;113206;-69
2021/06/05 13:53:53;;;;;;;;;7.00;6.33;;;;;;;;3483635;40;115169;-69
2021/06/05 13:56:20;;;;;;;;;7.00;7.00;;;;;;;;3483695;40;113083;-69
2021/06/05 13:58:46;;;;;;;;;9.67;7.00;;;;;;;;3485658;40;113649;-67
2021/06/05 14:01:13;;;;;;;;;8.25;8.25;;;;;;;;3482384;40;112766;-66
2021/06/05 14:03:39;;;;;;;;;7.00;7.00;;;;;;;;3483085;40;113562;-67
2021/06/05 19:18:22;;;;;;;;;9.75;7.00;;;;;;;;3577453;39;114442;-72
2021/06/05 19:20:49;;;;;;;;;8.75;7.75;;;;;;;;3571642;39;114190;-73
2021/06/05 19:23:15;;;;;;;;;10.50;8.00;;;;;;;;3572470;39;112461;-72
2021/06/05 19:25:43;;;;;;;;;8.00;8.00;;;;;;;;3572605;39;113544;-75
2021/06/05 19:28:10;;;;;;;;;8.50;7.25;;;;;;;;3572045;39;113907;-75
2021/06/05 19:30:38;;;;;;;;;9.00;7.75;;;;;;;;3569688;39;112868;-77